createdAt,value
2023-02-24T00:07:05.964Z,2.30
2023-02-24T00:17:12.549Z,1.95
2023-02-24T00:27:16.147Z,3.13
2023-02-24T00:37:25.650Z,4.32
2023-02-24T00:47:28.808Z,3.58
2023-02-24T00:57:35.648Z,2.38
2023-02-24T01:07:38.899Z,1.85
2023-02-24T01:17:46.357Z,2.25
2023-02-24T01:27:55.259Z,2.75
2023-02-24T01:38:01.940Z,4.53
2023-02-24T01:48:10.548Z,4.20
2023-02-24T01:58:23.265Z,1.73
2023-02-24T02:08:26.746Z,2.17
2023-02-24T02:18:41.379Z,0.98
2023-02-24T02:29:14.887Z,4.18
2023-02-24T02:39:27.225Z,2.53
2023-02-24T02:49:36.244Z,3.60
2023-02-24T02:59:49.577Z,3.22
2023-02-24T03:09:58.595Z,2.90
2023-02-24T03:20:18.610Z,1.50
2023-02-24T03:30:27.976Z,2.60
2023-02-24T03:40:36.307Z,2.83
2023-02-24T03:50:43.524Z,2.20
2023-02-24T04:00:56.583Z,1.90
2023-02-24T04:11:05.823Z,2.35
2023-02-24T04:21:10.245Z,3.08
2023-02-24T04:31:17.869Z,5.82
2023-02-24T04:41:23.566Z,4.30
2023-02-24T04:51:26.673Z,3.88
2023-02-24T05:01:33.566Z,2.60
2023-02-24T05:11:36.892Z,3.10
2023-02-24T05:21:42.123Z,3.60
2023-02-24T05:31:45.216Z,4.10
2023-02-24T05:41:50.763Z,4.57
2023-02-24T05:51:55.347Z,5.13
2023-02-24T06:02:01.179Z,3.85
2023-02-24T06:12:04.583Z,4.07
2023-02-24T06:22:13.884Z,5.90
2023-02-24T06:32:17.350Z,5.28
2023-02-24T06:42:21.911Z,5.65
2023-02-24T06:52:26.684Z,5.90
2023-02-24T07:02:39.803Z,4.65
2023-02-24T07:12:45.272Z,5.97
2023-02-24T07:22:50.538Z,7.75
2023-02-24T07:32:55.720Z,4.97
2023-02-24T07:43:02.267Z,6.03
2023-02-24T07:53:05.993Z,9.13
2023-02-24T08:03:10.393Z,6.68
2023-02-24T08:13:13.535Z,5.85
2023-02-24T08:23:18.944Z,9.18
2023-02-24T08:33:23.825Z,7.25
2023-02-24T08:43:30.022Z,9.35
2023-02-24T08:53:33.313Z,7.50
2023-02-24T09:03:46.339Z,6.38
2023-02-24T09:13:52.096Z,6.57
2023-02-24T09:23:56.728Z,7.82
2023-02-24T09:34:04.304Z,6.68
2023-02-24T09:44:19.132Z,6.13
2023-02-24T09:54:25.097Z,6.25
2023-02-24T10:04:49.481Z,5.68
2023-02-24T10:15:17.941Z,6.00
2023-02-24T10:25:36.763Z,8.40
2023-02-24T10:35:43.528Z,6.43
2023-02-24T10:45:48.231Z,4.82
2023-02-24T10:55:54.042Z,3.70
2023-02-24T11:06:04.485Z,3.85
2023-02-24T11:17:17.573Z,3.33
2023-02-24T11:27:55.022Z,3.72
2023-02-24T11:38:08.037Z,3.40
2023-02-24T11:48:18.508Z,4.40
2023-02-24T11:58:25.313Z,3.40
2023-02-24T12:08:37.259Z,5.25
2023-02-24T12:18:47.556Z,3.05
2023-02-24T12:29:16.626Z,4.55
2023-02-24T12:39:23.003Z,3.15
2023-02-24T12:49:50.425Z,4.50
2023-02-24T12:59:57.071Z,5.28
2023-02-24T13:10:19.970Z,3.90
2023-02-24T13:20:29.494Z,3.40
2023-02-24T13:30:47.422Z,4.30
2023-02-24T13:40:51.153Z,3.28
2023-02-24T13:51:24.501Z,5.07
2023-02-24T14:11:38.371Z,4.28
2023-02-24T14:21:48.301Z,5.03
2023-02-24T14:31:55.803Z,5.25
2023-02-24T14:42:12.684Z,4.88
2023-02-24T14:52:22.550Z,6.63
2023-02-24T15:02:33.440Z,7.53
2023-02-24T15:12:46.420Z,4.65
2023-02-24T15:22:52.941Z,5.88
2023-02-24T15:33:04.480Z,5.13
2023-02-24T15:43:10.749Z,5.20
2023-02-24T15:53:23.510Z,5.05
2023-02-24T16:03:29.507Z,4.40
2023-02-24T16:13:36.728Z,5.05
2023-02-24T16:23:41.002Z,4.43
2023-02-24T16:33:54.629Z,6.70
2023-02-24T16:44:00.897Z,3.90
2023-02-24T16:54:07.569Z,3.25
2023-02-24T17:04:14.498Z,3.95
2023-02-24T17:14:20.981Z,11.00
2023-02-24T17:24:26.479Z,7.30
2023-02-24T17:34:30.999Z,4.47
2023-02-24T17:44:34.124Z,5.97
2023-02-24T17:54:43.893Z,5.50
2023-02-24T18:04:49.296Z,5.13
2023-02-24T18:15:07.412Z,5.35
2023-02-24T18:25:11.314Z,5.53
2023-02-24T18:35:16.177Z,5.05
2023-02-24T18:45:20.265Z,7.13
2023-02-24T18:55:24.848Z,5.13
2023-02-24T19:05:37.883Z,6.10
2023-02-24T19:15:45.019Z,5.85
2023-02-24T19:25:48.067Z,9.88
2023-02-24T19:35:53.663Z,8.45
2023-02-24T19:45:56.693Z,7.05
2023-02-24T19:56:01.506Z,6.10
2023-02-24T20:06:16.041Z,5.68
2023-02-24T20:16:24.013Z,7.53
2023-02-24T20:26:27.157Z,9.15
2023-02-24T20:36:41.069Z,6.55
2023-02-24T20:46:44.140Z,6.45
2023-02-24T20:56:53.142Z,9.20
2023-02-24T21:06:56.981Z,7.13
2023-02-24T21:17:01.239Z,10.65
2023-02-24T21:27:04.332Z,7.38
2023-02-24T21:37:08.799Z,9.85
2023-02-24T21:47:11.578Z,6.82
2023-02-24T21:57:17.366Z,7.75
2023-02-24T22:07:23.061Z,6.55
2023-02-24T22:17:28.040Z,6.95
2023-02-24T22:27:30.866Z,7.57
2023-02-24T22:37:35.406Z,7.40
2023-02-24T22:47:39.449Z,7.03
2023-02-24T22:57:43.690Z,7.43
2023-02-24T23:07:48.663Z,8.35
2023-02-24T23:17:53.410Z,8.27
2023-02-24T23:27:56.302Z,6.57
2023-02-24T23:38:00.660Z,7.25
2023-02-24T23:48:04.074Z,7.35
2023-02-24T23:58:09.824Z,8.80
